sensor_id;sensor_type;location;lat;lon;timestamp;pressure;altitude;pressure_sealevel;temperature;humidity
8051;BME280;4068;42.158;24.732;2023-04-01T00:01:05;98801.97;;;9.02;100.00
8051;BME280;4068;42.158;24.732;2023-04-01T00:03:31;98827.88;;;9.08;100.00
8051;BME280;4068;42.158;24.732;2023-04-01T00:05:58;98810.56;;;8.94;100.00
8051;BME280;4068;42.158;24.732;2023-04-01T00:08:25;98812.56;;;8.81;100.00
8051;BME280;4068;42.158;24.732;2023-04-01T00:10:51;98818.50;;;8.73;100.00
8051;BME280;4068;42.158;24.732;2023-04-01T00:13:18;98783.31;;;8.52;100.00
8051;BME280;4068;42.158;24.732;2023-04-01T00:15:43;98813.81;;;8.77;100.00
8051;BME280;4068;42.158;24.732;2023-04-01T00:18:09;98823.00;;;8.83;100.00
8051;BME280;4068;42.158;24.732;2023-04-01T00:20:35;98824.44;;;8.87;100.00
8051;BME280;4068;42.158;24.732;2023-04-01T00:23:02;98820.94;;;8.86;100.00
8051;BME280;4068;42.158;24.732;2023-04-01T00:25:28;98822.88;;;8.84;100.00
8051;BME280;4068;42.158;24.732;2023-04-01T00:27:53;98839.97;;;9.01;100.00
8051;BME280;4068;42.158;24.732;2023-04-01T00:30:19;98817.78;;;8.92;100.00
8051;BME280;4068;42.158;24.732;2023-04-01T00:32:45;98830.03;;;8.93;100.00
8051;BME280;4068;42.158;24.732;2023-04-01T00:35:11;98821.72;;;8.77;100.00
8051;BME280;4068;42.158;24.732;2023-04-01T00:37:38;98831.56;;;8.75;100.00
8051;BME280;4068;42.158;24.732;2023-04-01T00:40:06;98836.16;;;8.73;100.00
8051;BME280;4068;42.158;24.732;2023-04-01T00:42:32;98835.56;;;8.69;100.00
8051;BME280;4068;42.158;24.732;2023-04-01T00:44:58;98826.00;;;8.68;100.00
8051;BME280;4068;42.158;24.732;2023-04-01T00:47:25;98826.69;;;8.70;100.00
8051;BME280;4068;42.158;24.732;2023-04-01T00:49:53;98827.78;;;8.68;100.00
8051;BME280;4068;42.158;24.732;2023-04-01T00:52:22;98832.50;;;8.64;100.00
8051;BME280;4068;42.158;24.732;2023-04-01T00:54:51;98834.75;;;8.69;100.00
8051;BME280;4068;42.158;24.732;2023-04-01T00:57:25;98826.25;;;8.65;100.00
8051;BME280;4068;42.158;24.732;2023-04-01T00:59:54;98821.19;;;8.62;100.00
8051;BME280;4068;42.158;24.732;2023-04-01T01:02:20;98807.81;;;8.54;100.00
8051;BME280;4068;42.158;24.732;2023-04-01T01:04:46;98820.31;;;8.73;100.00
8051;BME280;4068;42.158;24.732;2023-04-01T01:12:18;98804.13;;;8.87;100.00
8051;BME280;4068;42.158;24.732;2023-04-01T01:17:29;98821.72;;;8.98;100.00
8051;BME280;4068;42.158;24.732;2023-04-01T01:23:25;98826.13;;;9.19;100.00
8051;BME280;4068;42.158;24.732;2023-04-01T01:25:42;98822.38;;;9.21;100.00
8051;BME280;4068;42.158;24.732;2023-04-01T01:31:22;98820.78;;;9.09;100.00
8051;BME280;4068;42.158;24.732;2023-04-01T01:36:38;98815.22;;;8.81;100.00
8051;BME280;4068;42.158;24.732;2023-04-01T01:39:05;98815.22;;;8.81;100.00
8051;BME280;4068;42.158;24.732;2023-04-01T01:41:33;98809.06;;;8.80;100.00
8051;BME280;4068;42.158;24.732;2023-04-01T01:44:02;98784.47;;;8.59;100.00
8051;BME280;4068;42.158;24.732;2023-04-01T01:46:30;98806.63;;;8.68;100.00
8051;BME280;4068;42.158;24.732;2023-04-01T01:48:57;98764.56;;;8.43;100.00
8051;BME280;4068;42.158;24.732;2023-04-01T01:51:26;98789.41;;;8.52;100.00
8051;BME280;4068;42.158;24.732;2023-04-01T01:53:52;98768.56;;;8.38;100.00
8051;BME280;4068;42.158;24.732;2023-04-01T01:56:19;98779.72;;;8.41;100.00
8051;BME280;4068;42.158;24.732;2023-04-01T01:58:49;98775.66;;;8.37;100.00
8051;BME280;4068;42.158;24.732;2023-04-01T02:01:20;98730.22;;;8.01;100.00
8051;BME280;4068;42.158;24.732;2023-04-01T02:03:47;98755.28;;;8.07;100.00
8051;BME280;4068;42.158;24.732;2023-04-01T02:06:17;98762.91;;;8.21;100.00
8051;BME280;4068;42.158;24.732;2023-04-01T02:08:50;98762.81;;;8.11;100.00
8051;BME280;4068;42.158;24.732;2023-04-01T02:11:18;98763.88;;;8.20;100.00
8051;BME280;4068;42.158;24.732;2023-04-01T02:13:54;98763.03;;;8.20;100.00
8051;BME280;4068;42.158;24.732;2023-04-01T02:16:37;98749.94;;;7.97;100.00
8051;BME280;4068;42.158;24.732;2023-04-01T02:19:05;98793.56;;;8.12;100.00
8051;BME280;4068;42.158;24.732;2023-04-01T02:21:35;98786.22;;;8.16;100.00
8051;BME280;4068;42.158;24.732;2023-04-01T02:24:05;98783.44;;;8.18;100.00
8051;BME280;4068;42.158;24.732;2023-04-01T02:26:31;98784.38;;;7.95;100.00
8051;BME280;4068;42.158;24.732;2023-04-01T02:28:58;98795.19;;;7.92;100.00
8051;BME280;4068;42.158;24.732;2023-04-01T02:31:25;98790.28;;;7.88;100.00
8051;BME280;4068;42.158;24.732;2023-04-01T02:33:50;98784.53;;;7.83;100.00
8051;BME280;4068;42.158;24.732;2023-04-01T02:36:16;98765.25;;;7.71;100.00
8051;BME280;4068;42.158;24.732;2023-04-01T02:38:44;98747.53;;;7.62;100.00
8051;BME280;4068;42.158;24.732;2023-04-01T02:41:11;98743.19;;;7.60;100.00
8051;BME280;4068;42.158;24.732;2023-04-01T02:43:56;98761.78;;;7.70;100.00
8051;BME280;4068;42.158;24.732;2023-04-01T02:46:24;98776.53;;;7.73;100.00
8051;BME280;4068;42.158;24.732;2023-04-01T02:48:50;98756.00;;;7.65;100.00
8051;BME280;4068;42.158;24.732;2023-04-01T02:51:15;98779.50;;;7.80;100.00
8051;BME280;4068;42.158;24.732;2023-04-01T02:53:41;98764.03;;;7.75;100.00
8051;BME280;4068;42.158;24.732;2023-04-01T02:56:06;98770.53;;;8.03;100.00
8051;BME280;4068;42.158;24.732;2023-04-01T02:58:32;98757.72;;;7.99;100.00
8051;BME280;4068;42.158;24.732;2023-04-01T03:00:57;98766.03;;;7.94;100.00
8051;BME280;4068;42.158;24.732;2023-04-01T03:03:22;98741.72;;;7.79;100.00
8051;BME280;4068;42.158;24.732;2023-04-01T03:05:48;98758.28;;;7.81;100.00
8051;BME280;4068;42.158;24.732;2023-04-01T03:08:13;98725.69;;;7.59;100.00
8051;BME280;4068;42.158;24.732;2023-04-01T03:10:39;98755.06;;;7.66;100.00
8051;BME280;4068;42.158;24.732;2023-04-01T03:13:04;98757.25;;;7.61;100.00
8051;BME280;4068;42.158;24.732;2023-04-01T03:15:30;98768.03;;;7.58;100.00
8051;BME280;4068;42.158;24.732;2023-04-01T03:17:55;98760.38;;;7.43;100.00
8051;BME280;4068;42.158;24.732;2023-04-01T03:20:21;98780.78;;;7.41;100.00
8051;BME280;4068;42.158;24.732;2023-04-01T03:22:46;98762.44;;;7.40;100.00
8051;BME280;4068;42.158;24.732;2023-04-01T03:25:12;98747.94;;;7.34;100.00
8051;BME280;4068;42.158;24.732;2023-04-01T03:27:38;98733.81;;;7.24;100.00
8051;BME280;4068;42.158;24.732;2023-04-01T03:30:04;98718.97;;;7.12;100.00
8051;BME280;4068;42.158;24.732;2023-04-01T03:32:30;98753.69;;;7.28;100.00
8051;BME280;4068;42.158;24.732;2023-04-01T03:34:56;98748.19;;;7.31;100.00
8051;BME280;4068;42.158;24.732;2023-04-01T03:37:22;98738.47;;;7.32;100.00
8051;BME280;4068;42.158;24.732;2023-04-01T03:39:48;98723.00;;;7.38;100.00
8051;BME280;4068;42.158;24.732;2023-04-01T03:42:13;98717.34;;;7.43;100.00
8051;BME280;4068;42.158;24.732;2023-04-01T03:44:38;98732.78;;;7.59;100.00
8051;BME280;4068;42.158;24.732;2023-04-01T03:47:04;98728.22;;;7.61;100.00
8051;BME280;4068;42.158;24.732;2023-04-01T03:49:29;98733.13;;;7.66;100.00
8051;BME280;4068;42.158;24.732;2023-04-01T03:51:57;98734.69;;;7.68;100.00
8051;BME280;4068;42.158;24.732;2023-04-01T03:54:22;98718.72;;;7.70;100.00
8051;BME280;4068;42.158;24.732;2023-04-01T03:56:48;98727.44;;;7.82;100.00
8051;BME280;4068;42.158;24.732;2023-04-01T03:59:13;98720.41;;;7.92;100.00
8051;BME280;4068;42.158;24.732;2023-04-01T04:01:39;98721.97;;;7.94;100.00
8051;BME280;4068;42.158;24.732;2023-04-01T04:04:04;98704.84;;;7.89;100.00
8051;BME280;4068;42.158;24.732;2023-04-01T04:06:30;98699.56;;;7.89;100.00
8051;BME280;4068;42.158;24.732;2023-04-01T04:08:56;98697.88;;;7.88;100.00
8051;BME280;4068;42.158;24.732;2023-04-01T04:11:22;98714.25;;;8.03;100.00
8051;BME280;4068;42.158;24.732;2023-04-01T04:13:48;98720.06;;;8.18;100.00
8051;BME280;4068;42.158;24.732;2023-04-01T04:16:15;98714.97;;;8.26;100.00
8051;BME280;4068;42.158;24.732;2023-04-01T04:18:41;98691.84;;;8.18;100.00
8051;BME280;4068;42.158;24.732;2023-04-01T04:21:06;98708.94;;;8.35;100.00
8051;BME280;4068;42.158;24.732;2023-04-01T04:23:32;98727.03;;;8.61;100.00
8051;BME280;4068;42.158;24.732;2023-04-01T04:26:04;98730.56;;;8.71;100.00
8051;BME280;4068;42.158;24.732;2023-04-01T04:28:30;98739.25;;;8.83;100.00
8051;BME280;4068;42.158;24.732;2023-04-01T04:30:56;98718.69;;;8.87;100.00
8051;BME280;4068;42.158;24.732;2023-04-01T04:33:22;98728.94;;;9.11;100.00
8051;BME280;4068;42.158;24.732;2023-04-01T04:35:49;98712.47;;;9.07;100.00
8051;BME280;4068;42.158;24.732;2023-04-01T04:38:15;98728.97;;;9.30;100.00
8051;BME280;4068;42.158;24.732;2023-04-01T04:40:42;98725.06;;;9.35;100.00
8051;BME280;4068;42.158;24.732;2023-04-01T04:43:10;98697.09;;;9.32;100.00
8051;BME280;4068;42.158;24.732;2023-04-01T04:45:36;98734.34;;;9.70;100.00
8051;BME280;4068;42.158;24.732;2023-04-01T04:48:01;98739.81;;;9.88;100.00
8051;BME280;4068;42.158;24.732;2023-04-01T04:50:26;98741.47;;;9.98;100.00
8051;BME280;4068;42.158;24.732;2023-04-01T04:52:53;98723.34;;;9.94;100.00
8051;BME280;4068;42.158;24.732;2023-04-01T04:55:19;98749.56;;;10.16;100.00
8051;BME280;4068;42.158;24.732;2023-04-01T04:57:44;98751.53;;;10.34;100.00
8051;BME280;4068;42.158;24.732;2023-04-01T05:00:10;98724.72;;;10.37;100.00
8051;BME280;4068;42.158;24.732;2023-04-01T05:02:36;98748.41;;;10.58;100.00
8051;BME280;4068;42.158;24.732;2023-04-01T05:05:02;98750.16;;;10.77;100.00
8051;BME280;4068;42.158;24.732;2023-04-01T05:07:27;98747.66;;;10.76;99.98
8051;BME280;4068;42.158;24.732;2023-04-01T05:09:52;98750.13;;;10.87;97.77
8051;BME280;4068;42.158;24.732;2023-04-01T05:12:18;98758.84;;;11.07;97.08
8051;BME280;4068;42.158;24.732;2023-04-01T05:14:43;98749.94;;;11.08;95.76
8051;BME280;4068;42.158;24.732;2023-04-01T05:17:10;98734.50;;;10.94;95.82
8051;BME280;4068;42.158;24.732;2023-04-01T05:19:35;98741.63;;;10.93;95.89
8051;BME280;4068;42.158;24.732;2023-04-01T05:22:01;98740.53;;;10.86;96.10
8051;BME280;4068;42.158;24.732;2023-04-01T05:24:26;98735.56;;;10.73;97.50
8051;BME280;4068;42.158;24.732;2023-04-01T05:26:51;98727.78;;;10.52;98.90
8051;BME280;4068;42.158;24.732;2023-04-01T05:29:17;98730.16;;;10.55;99.62
8051;BME280;4068;42.158;24.732;2023-04-01T05:31:42;98728.31;;;10.56;100.00
8051;BME280;4068;42.158;24.732;2023-04-01T05:34:08;98726.22;;;10.59;99.99
8051;BME280;4068;42.158;24.732;2023-04-01T05:36:33;98710.81;;;10.35;100.00
8051;BME280;4068;42.158;24.732;2023-04-01T05:38:59;98684.97;;;10.27;100.00
8051;BME280;4068;42.158;24.732;2023-04-01T05:41:25;98706.88;;;10.49;100.00
8051;BME280;4068;42.158;24.732;2023-04-01T05:43:50;98698.06;;;10.48;100.00
8051;BME280;4068;42.158;24.732;2023-04-01T05:46:16;98640.22;;;10.14;100.00
8051;BME280;4068;42.158;24.732;2023-04-01T05:48:41;98685.59;;;10.59;100.00
8051;BME280;4068;42.158;24.732;2023-04-01T05:51:14;98643.63;;;10.54;100.00
8051;BME280;4068;42.158;24.732;2023-04-01T05:53:40;98674.78;;;10.80;100.00
8051;BME280;4068;42.158;24.732;2023-04-01T05:56:06;98666.19;;;10.68;100.00
8051;BME280;4068;42.158;24.732;2023-04-01T05:58:33;98657.28;;;10.69;100.00
8051;BME280;4068;42.158;24.732;2023-04-01T06:01:17;98632.91;;;10.46;100.00
8051;BME280;4068;42.158;24.732;2023-04-01T06:03:43;98631.13;;;10.46;100.00
8051;BME280;4068;42.158;24.732;2023-04-01T06:06:22;98651.50;;;10.74;100.00
8051;BME280;4068;42.158;24.732;2023-04-01T06:08:48;98667.78;;;10.88;100.00
8051;BME280;4068;42.158;24.732;2023-04-01T06:11:24;98661.91;;;11.13;100.00
8051;BME280;4068;42.158;24.732;2023-04-01T06:19:42;98624.25;;;11.81;96.82
8051;BME280;4068;42.158;24.732;2023-04-01T06:22:38;98631.00;;;11.75;97.39
8051;BME280;4068;42.158;24.732;2023-04-01T06:28:05;98619.47;;;12.03;96.28
8051;BME280;4068;42.158;24.732;2023-04-01T06:30:53;98648.38;;;12.06;96.38
8051;BME280;4068;42.158;24.732;2023-04-01T06:36:37;98644.38;;;12.28;95.35
8051;BME280;4068;42.158;24.732;2023-04-01T06:39:11;98639.47;;;12.15;95.19
8051;BME280;4068;42.158;24.732;2023-04-01T06:54:55;98630.31;;;13.29;90.17
8051;BME280;4068;42.158;24.732;2023-04-01T06:57:41;98624.56;;;13.42;88.28
8051;BME280;4068;42.158;24.732;2023-04-01T07:00:14;98649.06;;;13.79;85.46
8051;BME280;4068;42.158;24.732;2023-04-01T07:05:13;98650.09;;;14.03;84.58
8051;BME280;4068;42.158;24.732;2023-04-01T07:07:46;98645.41;;;14.29;84.28
8051;BME280;4068;42.158;24.732;2023-04-01T07:10:25;98615.72;;;14.32;81.24
8051;BME280;4068;42.158;24.732;2023-04-01T07:12:56;98606.94;;;14.07;82.61
8051;BME280;4068;42.158;24.732;2023-04-01T07:15:34;98602.97;;;13.87;84.82
8051;BME280;4068;42.158;24.732;2023-04-01T07:18:11;98610.75;;;13.96;84.65
8051;BME280;4068;42.158;24.732;2023-04-01T07:20:39;98620.38;;;14.22;83.17
8051;BME280;4068;42.158;24.732;2023-04-01T07:23:38;98601.47;;;14.57;81.69
8051;BME280;4068;42.158;24.732;2023-04-01T07:26:21;98594.75;;;14.77;80.00
8051;BME280;4068;42.158;24.732;2023-04-01T07:28:48;98599.91;;;14.79;80.21
8051;BME280;4068;42.158;24.732;2023-04-01T07:51:02;98577.13;;;15.92;74.75
8051;BME280;4068;42.158;24.732;2023-04-01T07:56:22;98586.66;;;16.25;75.12
8051;BME280;4068;42.158;24.732;2023-04-01T07:59:21;98586.75;;;16.31;72.67
8051;BME280;4068;42.158;24.732;2023-04-01T08:02:25;98585.28;;;16.14;74.17
8051;BME280;4068;42.158;24.732;2023-04-01T08:07:31;98564.50;;;15.40;77.01
8051;BME280;4068;42.158;24.732;2023-04-01T08:10:20;98567.66;;;15.20;77.29
8051;BME280;4068;42.158;24.732;2023-04-01T08:15:49;98547.38;;;14.31;83.79
8051;BME280;4068;42.158;24.732;2023-04-01T08:21:23;98545.41;;;14.17;85.59
8051;BME280;4068;42.158;24.732;2023-04-01T08:23:56;98511.66;;;13.93;86.62
8051;BME280;4068;42.158;24.732;2023-04-01T08:26:30;98515.84;;;13.87;87.78
8051;BME280;4068;42.158;24.732;2023-04-01T08:29:06;98533.81;;;13.93;88.48
8051;BME280;4068;42.158;24.732;2023-04-01T08:31:45;98532.13;;;14.01;88.39
8051;BME280;4068;42.158;24.732;2023-04-01T08:34:17;98531.28;;;14.17;87.02
8051;BME280;4068;42.158;24.732;2023-04-01T08:37:11;98520.06;;;14.29;86.65
8051;BME280;4068;42.158;24.732;2023-04-01T08:39:44;98511.22;;;14.29;86.87
8051;BME280;4068;42.158;24.732;2023-04-01T08:52:43;98487.78;;;15.10;82.00
8051;BME280;4068;42.158;24.732;2023-04-01T08:55:51;98480.78;;;15.09;81.41
8051;BME280;4068;42.158;24.732;2023-04-01T09:01:14;98473.94;;;15.30;80.41
8051;BME280;4068;42.158;24.732;2023-04-01T09:18:22;98437.66;;;15.88;76.81
8051;BME280;4068;42.158;24.732;2023-04-01T09:40:17;98401.78;;;16.71;70.74
8051;BME280;4068;42.158;24.732;2023-04-01T09:45:46;98401.84;;;16.56;73.31
8051;BME280;4068;42.158;24.732;2023-04-01T09:48:30;98414.47;;;17.05;69.80
8051;BME280;4068;42.158;24.732;2023-04-01T10:21:16;98335.75;;;17.28;68.05
8051;BME280;4068;42.158;24.732;2023-04-01T10:24:02;98322.91;;;17.52;66.93
8051;BME280;4068;42.158;24.732;2023-04-01T10:53:41;98232.97;;;18.11;64.90
8051;BME280;4068;42.158;24.732;2023-04-01T10:56:40;98216.06;;;18.04;65.83
8051;BME280;4068;42.158;24.732;2023-04-01T11:17:42;98201.91;;;20.63;55.19
8051;BME280;4068;42.158;24.732;2023-04-01T11:20:45;98187.91;;;20.80;55.06
8051;BME280;4068;42.158;24.732;2023-04-01T11:29:03;98187.03;;;20.61;56.58
8051;BME280;4068;42.158;24.732;2023-04-01T11:31:47;98160.06;;;20.86;53.45
8051;BME280;4068;42.158;24.732;2023-04-01T11:39:59;98158.94;;;21.31;53.61
8051;BME280;4068;42.158;24.732;2023-04-01T11:45:51;98132.06;;;21.85;53.23
8051;BME280;4068;42.158;24.732;2023-04-01T11:58:51;98151.84;;;21.18;55.06
8051;BME280;4068;42.158;24.732;2023-04-01T12:09:36;98127.81;;;21.47;54.79
8051;BME280;4068;42.158;24.732;2023-04-01T12:12:23;98126.13;;;21.64;54.29
8051;BME280;4068;42.158;24.732;2023-04-01T12:18:27;98104.91;;;21.07;55.26
8051;BME280;4068;42.158;24.732;2023-04-01T12:26:42;98075.03;;;21.81;53.31
8051;BME280;4068;42.158;24.732;2023-04-01T12:31:57;98055.72;;;22.08;51.34
8051;BME280;4068;42.158;24.732;2023-04-01T12:34:53;98047.97;;;22.47;51.24
8051;BME280;4068;42.158;24.732;2023-04-01T12:52:07;98033.75;;;22.04;53.58
8051;BME280;4068;42.158;24.732;2023-04-01T13:00:32;98020.97;;;22.12;53.08
8051;BME280;4068;42.158;24.732;2023-04-01T13:05:55;98017.81;;;22.15;53.06
8051;BME280;4068;42.158;24.732;2023-04-01T13:11:42;97988.38;;;21.89;53.65
8051;BME280;4068;42.158;24.732;2023-04-01T13:22:35;98013.22;;;21.80;51.23
8051;BME280;4068;42.158;24.732;2023-04-01T13:25:14;98013.25;;;21.37;52.50
8051;BME280;4068;42.158;24.732;2023-04-01T13:27:46;98018.66;;;21.07;53.29
8051;BME280;4068;42.158;24.732;2023-04-01T13:30:33;98043.84;;;20.64;54.52
8051;BME280;4068;42.158;24.732;2023-04-01T13:44:11;98167.09;;;17.62;66.93
8051;BME280;4068;42.158;24.732;2023-04-01T14:00:54;98267.34;;;16.69;76.24
8051;BME280;4068;42.158;24.732;2023-04-01T14:09:49;98264.75;;;16.11;87.32
8051;BME280;4068;42.158;24.732;2023-04-01T14:15:19;98287.00;;;16.61;84.57
8051;BME280;4068;42.158;24.732;2023-04-01T14:17:40;98286.81;;;17.13;80.15
8051;BME280;4068;42.158;24.732;2023-04-01T14:23:26;98268.25;;;17.46;76.93
8051;BME280;4068;42.158;24.732;2023-04-01T14:37:54;98248.91;;;17.57;76.10
8051;BME280;4068;42.158;24.732;2023-04-01T14:43:14;98223.22;;;17.28;77.15
8051;BME280;4068;42.158;24.732;2023-04-01T14:48:59;98229.38;;;17.22;78.89
8051;BME280;4068;42.158;24.732;2023-04-01T14:51:38;98226.25;;;17.12;80.89
8051;BME280;4068;42.158;24.732;2023-04-01T14:54:14;98211.91;;;16.91;82.30
8051;BME280;4068;42.158;24.732;2023-04-01T14:57:02;98233.22;;;16.84;84.60
8051;BME280;4068;42.158;24.732;2023-04-01T14:59:29;98222.00;;;16.67;86.56
8051;BME280;4068;42.158;24.732;2023-04-01T15:04:53;98208.47;;;16.47;90.09
8051;BME280;4068;42.158;24.732;2023-04-01T15:12:38;98203.47;;;16.16;92.24
8051;BME280;4068;42.158;24.732;2023-04-01T15:18:12;98205.66;;;15.84;95.50
8051;BME280;4068;42.158;24.732;2023-04-01T15:26:47;98217.16;;;15.48;100.00
8051;BME280;4068;42.158;24.732;2023-04-01T15:29:40;98203.44;;;15.36;100.00
8051;BME280;4068;42.158;24.732;2023-04-01T15:38:03;98171.88;;;15.25;97.89
8051;BME280;4068;42.158;24.732;2023-04-01T15:43:21;98193.81;;;15.20;100.00
8051;BME280;4068;42.158;24.732;2023-04-01T15:53:54;98173.00;;;15.00;100.00
8051;BME280;4068;42.158;24.732;2023-04-01T15:56:30;98183.06;;;14.98;100.00
8051;BME280;4068;42.158;24.732;2023-04-01T16:01:46;98185.19;;;14.88;100.00
8051;BME280;4068;42.158;24.732;2023-04-01T16:12:21;98181.81;;;14.56;100.00
8051;BME280;4068;42.158;24.732;2023-04-01T16:23:02;98239.03;;;14.54;100.00
8051;BME280;4068;42.158;24.732;2023-04-01T16:25:39;98246.69;;;14.57;100.00
8051;BME280;4068;42.158;24.732;2023-04-01T16:30:48;98251.72;;;14.52;100.00
8051;BME280;4068;42.158;24.732;2023-04-01T16:41:38;98283.59;;;14.45;100.00
8051;BME280;4068;42.158;24.732;2023-04-01T16:44:21;98268.03;;;14.33;99.17
8051;BME280;4068;42.158;24.732;2023-04-01T16:47:09;98278.63;;;14.42;98.31
8051;BME280;4068;42.158;24.732;2023-04-01T16:49:52;98282.72;;;14.53;98.54
8051;BME280;4068;42.158;24.732;2023-04-01T16:52:35;98260.19;;;14.32;99.71
8051;BME280;4068;42.158;24.732;2023-04-01T16:55:20;98257.41;;;14.02;100.00
8051;BME280;4068;42.158;24.732;2023-04-01T16:57:56;98246.22;;;13.84;100.00
8051;BME280;4068;42.158;24.732;2023-04-01T17:00:25;98242.56;;;13.85;100.00
8051;BME280;4068;42.158;24.732;2023-04-01T17:05:39;98236.63;;;13.43;100.00
8051;BME280;4068;42.158;24.732;2023-04-01T17:10:53;98210.22;;;13.25;100.00
8051;BME280;4068;42.158;24.732;2023-04-01T17:13:50;98201.09;;;13.19;100.00
8051;BME280;4068;42.158;24.732;2023-04-01T17:40:44;98271.09;;;12.47;100.00
8051;BME280;4068;42.158;24.732;2023-04-01T17:51:33;98410.56;;;12.86;100.00
8051;BME280;4068;42.158;24.732;2023-04-01T17:57:21;98416.03;;;13.09;100.00
8051;BME280;4068;42.158;24.732;2023-04-01T18:00:36;98446.66;;;13.21;95.91
8051;BME280;4068;42.158;24.732;2023-04-01T18:22:08;98472.75;;;13.09;90.86
8051;BME280;4068;42.158;24.732;2023-04-01T18:24:43;98480.09;;;13.07;92.35
8051;BME280;4068;42.158;24.732;2023-04-01T18:27:33;98479.25;;;13.07;93.70
8051;BME280;4068;42.158;24.732;2023-04-01T18:30:18;98470.94;;;13.02;95.21
8051;BME280;4068;42.158;24.732;2023-04-01T18:38:16;98474.91;;;12.89;93.58
8051;BME280;4068;42.158;24.732;2023-04-01T18:51:38;98502.06;;;12.42;96.80
8051;BME280;4068;42.158;24.732;2023-04-01T18:54:16;98475.88;;;12.21;98.61
8051;BME280;4068;42.158;24.732;2023-04-01T18:56:47;98503.31;;;12.21;98.92
8051;BME280;4068;42.158;24.732;2023-04-01T19:02:02;98515.00;;;12.02;99.25
8051;BME280;4068;42.158;24.732;2023-04-01T19:04:43;98524.44;;;11.97;97.72
8051;BME280;4068;42.158;24.732;2023-04-01T19:07:40;98518.38;;;11.86;97.30
8051;BME280;4068;42.158;24.732;2023-04-01T19:21:41;98522.72;;;11.43;100.00
8051;BME280;4068;42.158;24.732;2023-04-01T19:26:58;98518.19;;;11.17;100.00
8051;BME280;4068;42.158;24.732;2023-04-01T19:32:31;98538.50;;;10.91;100.00
8051;BME280;4068;42.158;24.732;2023-04-01T19:38:04;98526.94;;;10.64;100.00
8051;BME280;4068;42.158;24.732;2023-04-01T19:46:33;98535.16;;;10.33;100.00
8051;BME280;4068;42.158;24.732;2023-04-01T19:54:41;98550.47;;;10.49;100.00
8051;BME280;4068;42.158;24.732;2023-04-01T20:02:50;98551.66;;;10.27;100.00
8051;BME280;4068;42.158;24.732;2023-04-01T20:08:04;98528.47;;;10.01;100.00
8051;BME280;4068;42.158;24.732;2023-04-01T20:16:06;98582.16;;;9.93;100.00
8051;BME280;4068;42.158;24.732;2023-04-01T20:21:19;98600.97;;;9.80;100.00
8051;BME280;4068;42.158;24.732;2023-04-01T20:24:01;98611.03;;;9.67;100.00
8051;BME280;4068;42.158;24.732;2023-04-01T20:26:35;98600.72;;;9.54;100.00
8051;BME280;4068;42.158;24.732;2023-04-01T20:39:54;98632.22;;;9.57;100.00
8051;BME280;4068;42.158;24.732;2023-04-01T20:45:35;98639.03;;;9.70;100.00
8051;BME280;4068;42.158;24.732;2023-04-01T20:49:05;98646.84;;;9.71;100.00
8051;BME280;4068;42.158;24.732;2023-04-01T20:51:18;98636.69;;;9.76;100.00
8051;BME280;4068;42.158;24.732;2023-04-01T20:53:50;98642.94;;;9.75;100.00
8051;BME280;4068;42.158;24.732;2023-04-01T21:01:54;98641.41;;;9.73;100.00
8051;BME280;4068;42.158;24.732;2023-04-01T21:10:20;98648.78;;;9.79;100.00
8051;BME280;4068;42.158;24.732;2023-04-01T21:29:55;98668.56;;;9.94;100.00
8051;BME280;4068;42.158;24.732;2023-04-01T21:32:48;98656.72;;;9.98;100.00
8051;BME280;4068;42.158;24.732;2023-04-01T21:52:44;98680.84;;;9.85;100.00
8051;BME280;4068;42.158;24.732;2023-04-01T22:01:21;98693.63;;;9.41;100.00
8051;BME280;4068;42.158;24.732;2023-04-01T22:07:17;98685.81;;;9.30;100.00
8051;BME280;4068;42.158;24.732;2023-04-01T22:10:09;98693.03;;;9.18;100.00
8051;BME280;4068;42.158;24.732;2023-04-01T22:12:47;98666.47;;;8.89;100.00
8051;BME280;4068;42.158;24.732;2023-04-01T22:15:19;98707.34;;;9.15;100.00
8051;BME280;4068;42.158;24.732;2023-04-01T22:17:57;98670.13;;;8.97;100.00
8051;BME280;4068;42.158;24.732;2023-04-01T22:20:50;98700.22;;;9.06;100.00
8051;BME280;4068;42.158;24.732;2023-04-01T22:25:59;98699.84;;;8.80;100.00
8051;BME280;4068;42.158;24.732;2023-04-01T22:28:31;98680.97;;;8.54;100.00
8051;BME280;4068;42.158;24.732;2023-04-01T22:31:00;98696.59;;;8.67;100.00
8051;BME280;4068;42.158;24.732;2023-04-01T22:38:52;98689.81;;;8.74;100.00
8051;BME280;4068;42.158;24.732;2023-04-01T22:44:00;98675.69;;;8.63;100.00
8051;BME280;4068;42.158;24.732;2023-04-01T22:49:37;98693.66;;;8.60;100.00
8051;BME280;4068;42.158;24.732;2023-04-01T22:52:09;98692.72;;;8.71;100.00
8051;BME280;4068;42.158;24.732;2023-04-01T22:54:43;98701.09;;;8.76;100.00
8051;BME280;4068;42.158;24.732;2023-04-01T22:59:50;98698.91;;;8.81;100.00
8051;BME280;4068;42.158;24.732;2023-04-01T23:02:33;98674.59;;;8.66;100.00
8051;BME280;4068;42.158;24.732;2023-04-01T23:05:03;98705.16;;;8.80;100.00
8051;BME280;4068;42.158;24.732;2023-04-01T23:07:48;98716.31;;;8.93;100.00
8051;BME280;4068;42.158;24.732;2023-04-01T23:10:25;98718.53;;;8.88;100.00
8051;BME280;4068;42.158;24.732;2023-04-01T23:12:53;98692.34;;;8.75;100.00
8051;BME280;4068;42.158;24.732;2023-04-01T23:15:21;98717.00;;;8.86;100.00
8051;BME280;4068;42.158;24.732;2023-04-01T23:20:32;98711.53;;;8.77;100.00
8051;BME280;4068;42.158;24.732;2023-04-01T23:38:14;98696.94;;;8.10;100.00
8051;BME280;4068;42.158;24.732;2023-04-01T23:40:40;98701.75;;;8.26;100.00
8051;BME280;4068;42.158;24.732;2023-04-01T23:43:25;98734.44;;;8.46;100.00
8051;BME280;4068;42.158;24.732;2023-04-01T23:45:54;98729.03;;;8.48;100.00
8051;BME280;4068;42.158;24.732;2023-04-01T23:48:26;98712.50;;;8.45;100.00
8051;BME280;4068;42.158;24.732;2023-04-01T23:50:53;98700.00;;;8.36;100.00
8051;BME280;4068;42.158;24.732;2023-04-01T23:53:26;98708.25;;;8.43;100.00
8051;BME280;4068;42.158;24.732;2023-04-01T23:55:54;98683.53;;;8.23;100.00
8051;BME280;4068;42.158;24.732;2023-04-01T23:58:50;98711.72;;;8.43;100.00
